Senjavaering — LJDT — position and weather

sailwx.info

Track history (hours):
 
Tides and Currents Weather Stations Pressure Air Temp Water Temp Dewpoint Dewpoint Depression Visibility Wind Speed Wind Dir Waves Ship Positions

Senjavaering

Last reported at 2018-Feb-20 22:03 UTC. Time now 2018-Apr-21 15:38 UTC.
Position N 69°33' E 017°40'.
Warning: this ship's position is 59 days out of date.

Length 22 m.

Type: Fishing. MMSI: 257531600.

Date/timePositionNaut miles runAvg speedWind from/ knotsBaromVisibWave heightAir tempDewpointWater temp
2018-Feb-20 22:03N 69°33' E 017°40'0 0.1
2018-Feb-20 22:00N 69°33' E 017°40'0 0.0
2018-Feb-20 21:26N 69°33' E 017°40'0 0.0
2018-Feb-20 21:00N 69°33' E 017°40'0 0.0
2018-Feb-20 20:30N 69°33' E 017°40'0 0.0
2018-Feb-20 19:34N 69°33' E 017°40'5 0.1
2018-Feb-19 05:16N 69°36' E 017°32'5 8.3
2018-Feb-19 04:41N 69°33' E 017°40'0 0.3
2018-Feb-19 04:23N 69°33' E 017°40'0 0.0
2018-Feb-19 04:00N 69°33' E 017°40'0 0.0
2018-Feb-19 03:25N 69°33' E 017°40'0 0.0
2018-Feb-19 02:56N 69°33' E 017°40'0 0.0
2018-Feb-19 02:30N 69°33' E 017°40'0 0.0
2018-Feb-19 02:00N 69°33' E 017°40'0 0.0
2018-Feb-19 01:30N 69°33' E 017°40'0 0.0
2018-Feb-19 01:00N 69°33' E 017°40'0 0.0
2018-Feb-19 00:30N 69°33' E 017°40'0 0.0
2018-Feb-19 00:00N 69°33' E 017°40'0 0.0
2018-Feb-18 23:30N 69°33' E 017°40'0 0.0
2018-Feb-18 22:57N 69°33' E 017°40'0 0.0
2018-Feb-18 22:29N 69°33' E 017°40'0 0.0
2018-Feb-18 22:00N 69°33' E 017°40'0 0.0
2018-Feb-18 21:30N 69°33' E 017°40'0 0.0
2018-Feb-18 21:00N 69°33' E 017°40'0 0.0
2018-Feb-18 20:30N 69°33' E 017°40'0 0.0
2018-Feb-18 20:00N 69°33' E 017°40'0 0.0
2018-Feb-18 19:30N 69°33' E 017°40'0 0.0
2018-Feb-18 19:00N 69°33' E 017°40'0 0.0
2018-Feb-18 18:30N 69°33' E 017°40'0 0.0
2018-Feb-18 18:00N 69°33' E 017°40'0 0.0
2018-Feb-18 17:28N 69°33' E 017°40'0 0.0
2018-Feb-18 16:50N 69°33' E 017°40'0 0.0
2018-Feb-18 16:30N 69°33' E 017°40'0 0.0
2018-Feb-18 15:59N 69°33' E 017°40'0 0.0
2018-Feb-18 15:28N 69°33' E 017°40'0 0.0
2018-Feb-18 14:57N 69°33' E 017°40'0 0.0
2018-Feb-18 14:19N 69°33' E 017°40'0 0.0
2018-Feb-18 13:57N 69°33' E 017°40'0 0.0
2018-Feb-18 13:30N 69°33' E 017°40'2 4.0
2018-Feb-18 13:00N 69°34' E 017°36'4 8.4
2018-Feb-18 12:30N 69°38' E 017°30'3 6.0
2018-Feb-18 12:00N 69°40' E 017°27'0 0.8
2018-Feb-18 11:30N 69°41' E 017°26'0 0.3
2018-Feb-18 11:00N 69°41' E 017°26'0 0.6
2018-Feb-18 10:30N 69°41' E 017°26'0 0.2
2018-Feb-18 09:19N 69°41' E 017°26'0 1.0
2018-Feb-18 08:59N 69°41' E 017°26'0 0.8
2018-Feb-18 08:29N 69°40' E 017°25'0 0.5
2018-Feb-18 07:59N 69°40' E 017°26'0 0.2
2018-Feb-18 06:09N 69°40' E 017°26'0 0.3
2018-Feb-18 05:58N 69°40' E 017°26'5 8.2
2018-Feb-18 05:22N 69°36' E 017°33'3 8.7
2018-Feb-18 04:58N 69°33' E 017°38'1 1.6
2018-Feb-18 04:26N 69°33' E 017°40'0 0.0
2018-Feb-18 03:54N 69°33' E 017°40'0 0.0
2018-Feb-18 03:30N 69°33' E 017°40'0 0.0
2018-Feb-17 23:21N 69°33' E 017°40'  
2018-Feb-12 20:00N 69°33' E 017°40'0 0.0
2018-Feb-11 18:25N 69°33' E 017°40'0 0.0
2018-Feb-11 17:24N 69°33' E 017°40'0 0.0
2018-Feb-11 17:00N 69°33' E 017°40'0 0.0
2018-Feb-11 16:27N 69°33' E 017°40'0 0.0
2018-Feb-10 23:37N 69°33' E 017°40'0 0.0
2018-Feb-10 23:27N 69°33' E 017°40'0 0.0
2018-Feb-10 22:44N 69°33' E 017°40'0 0.0
2018-Feb-10 22:26N 69°33' E 017°40'  
Track history (hours):
 
Tides and Currents Weather Stations Pressure Air Temp Water Temp Dewpoint Dewpoint Depression Visibility Wind Speed Wind Dir Waves Ship Positions

Senjavaering

Last reported at 2018-Feb-20 22:03 UTC. Time now 2018-Apr-21 15:38 UTC.
Position N 69°33' E 017°40'.
Warning: this ship's position is 59 days out of date.

Length 22 m.

Type: Fishing. MMSI: 257531600.

Date/timePositionNaut miles runAvg speedWind from/ knotsBaromVisibWave heightAir tempDewpointWater temp
2018-Feb-20 22:03N 69°33' E 017°40'0 0.1
2018-Feb-20 22:00N 69°33' E 017°40'0 0.0
2018-Feb-20 21:26N 69°33' E 017°40'0 0.0
2018-Feb-20 21:00N 69°33' E 017°40'0 0.0
2018-Feb-20 20:30N 69°33' E 017°40'0 0.0
2018-Feb-20 19:34N 69°33' E 017°40'5 0.1
2018-Feb-19 05:16N 69°36' E 017°32'5 8.3
2018-Feb-19 04:41N 69°33' E 017°40'0 0.3
2018-Feb-19 04:23N 69°33' E 017°40'0 0.0
2018-Feb-19 04:00N 69°33' E 017°40'0 0.0
2018-Feb-19 03:25N 69°33' E 017°40'0 0.0
2018-Feb-19 02:56N 69°33' E 017°40'0 0.0
2018-Feb-19 02:30N 69°33' E 017°40'0 0.0
2018-Feb-19 02:00N 69°33' E 017°40'0 0.0
2018-Feb-19 01:30N 69°33' E 017°40'0 0.0
2018-Feb-19 01:00N 69°33' E 017°40'0 0.0
2018-Feb-19 00:30N 69°33' E 017°40'0 0.0
2018-Feb-19 00:00N 69°33' E 017°40'0 0.0
2018-Feb-18 23:30N 69°33' E 017°40'0 0.0
2018-Feb-18 22:57N 69°33' E 017°40'0 0.0
2018-Feb-18 22:29N 69°33' E 017°40'0 0.0
2018-Feb-18 22:00N 69°33' E 017°40'0 0.0
2018-Feb-18 21:30N 69°33' E 017°40'0 0.0
2018-Feb-18 21:00N 69°33' E 017°40'0 0.0
2018-Feb-18 20:30N 69°33' E 017°40'0 0.0
2018-Feb-18 20:00N 69°33' E 017°40'0 0.0
2018-Feb-18 19:30N 69°33' E 017°40'0 0.0
2018-Feb-18 19:00N 69°33' E 017°40'0 0.0
2018-Feb-18 18:30N 69°33' E 017°40'0 0.0
2018-Feb-18 18:00N 69°33' E 017°40'0 0.0
2018-Feb-18 17:28N 69°33' E 017°40'0 0.0
2018-Feb-18 16:50N 69°33' E 017°40'0 0.0
2018-Feb-18 16:30N 69°33' E 017°40'0 0.0
2018-Feb-18 15:59N 69°33' E 017°40'0 0.0
2018-Feb-18 15:28N 69°33' E 017°40'0 0.0
2018-Feb-18 14:57N 69°33' E 017°40'0 0.0
2018-Feb-18 14:19N 69°33' E 017°40'0 0.0
2018-Feb-18 13:57N 69°33' E 017°40'0 0.0
2018-Feb-18 13:30N 69°33' E 017°40'2 4.0
2018-Feb-18 13:00N 69°34' E 017°36'4 8.4
2018-Feb-18 12:30N 69°38' E 017°30'3 6.0
2018-Feb-18 12:00N 69°40' E 017°27'0 0.8
2018-Feb-18 11:30N 69°41' E 017°26'0 0.3
2018-Feb-18 11:00N 69°41' E 017°26'0 0.6
2018-Feb-18 10:30N 69°41' E 017°26'0 0.2
2018-Feb-18 09:19N 69°41' E 017°26'0 1.0
2018-Feb-18 08:59N 69°41' E 017°26'0 0.8
2018-Feb-18 08:29N 69°40' E 017°25'0 0.5
2018-Feb-18 07:59N 69°40' E 017°26'0 0.2
2018-Feb-18 06:09N 69°40' E 017°26'0 0.3
2018-Feb-18 05:58N 69°40' E 017°26'5 8.2
2018-Feb-18 05:22N 69°36' E 017°33'3 8.7
2018-Feb-18 04:58N 69°33' E 017°38'1 1.6
2018-Feb-18 04:26N 69°33' E 017°40'0 0.0
2018-Feb-18 03:54N 69°33' E 017°40'0 0.0
2018-Feb-18 03:30N 69°33' E 017°40'0 0.0
2018-Feb-17 23:21N 69°33' E 017°40'  
2018-Feb-12 20:00N 69°33' E 017°40'0 0.0
2018-Feb-11 18:25N 69°33' E 017°40'0 0.0
2018-Feb-11 17:24N 69°33' E 017°40'0 0.0
2018-Feb-11 17:00N 69°33' E 017°40'0 0.0
2018-Feb-11 16:27N 69°33' E 017°40'0 0.0
2018-Feb-10 23:37N 69°33' E 017°40'0 0.0
2018-Feb-10 23:27N 69°33' E 017°40'0 0.0
2018-Feb-10 22:44N 69°33' E 017°40'0 0.0
2018-Feb-10 22:26N 69°33' E 017°40'  

Dump ship's entire track history